Time;durP1;ratioP1;P1;durP2;ratioP2;P2;SDS_P1;SDS_P2;PMS_P1;PMS_P2;Temp;Humidity;BMP_temperature;BMP_pressure;BME280_temperature;BME280_humidity;BME280_pressure;Samples;Min_cycle;Max_cycle;Signal;HPM_P1;HPM_P2
2023/04/21 00:02:06;;;;;;;0.28;0.28;;;10.90;60.20;;;;;;5101005;28;20050;-75
2023/04/21 00:04:32;;;;;;;0.32;0.32;;;10.70;60.70;;;;;;5101674;28;20118;-75
2023/04/21 00:07:02;;;;;;;0.15;0.15;;;10.70;60.60;;;;;;5101178;28;20054;-76
2023/04/21 00:09:28;;;;;;;0.20;0.20;;;10.60;61.10;;;;;;5081893;28;20028;-76
2023/04/21 00:11:54;;;;;;;0.30;0.30;;;10.60;61.50;;;;;;5088061;27;20039;-75
2023/04/21 00:14:19;;;;;;;0.50;0.50;;;10.30;62.50;;;;;;5106771;27;20070;-75
2023/04/21 00:16:46;;;;;;;0.10;0.10;;;10.40;62.40;;;;;;5101765;28;20042;-75
2023/04/21 00:19:13;;;;;;;0.10;0.10;;;10.40;62.10;;;;;;5093117;27;20042;-76
2023/04/21 00:21:38;;;;;;;0.30;0.30;;;10.30;62.40;;;;;;5099448;28;20264;-76
2023/04/21 00:24:05;;;;;;;0.55;0.55;;;10.30;62.40;;;;;;5101265;28;20054;-76
2023/04/21 00:26:30;;;;;;;0.30;0.30;;;10.20;62.50;;;;;;5091660;28;20026;-76
2023/04/21 00:28:56;;;;;;;0.40;0.40;;;10.10;62.90;;;;;;5102642;28;20261;-76
2023/04/21 00:31:22;;;;;;;1.45;0.75;;;10.10;63.10;;;;;;5093803;28;20056;-76
2023/04/21 00:33:48;;;;;;;0.15;0.15;;;10.10;63.00;;;;;;5084699;28;20110;-76
2023/04/21 00:36:13;;;;;;;0.10;0.10;;;10.10;63.20;;;;;;5093858;28;20090;-76
2023/04/21 00:38:39;;;;;;;0.52;0.52;;;9.90;64.30;;;;;;5098502;28;20024;-76
2023/04/21 00:41:05;;;;;;;0.20;0.20;;;9.90;63.80;;;;;;5095264;28;20111;-75
2023/04/21 00:43:30;;;;;;;0.20;0.20;;;10.00;63.60;;;;;;5084968;28;20028;-75
2023/04/21 00:45:56;;;;;;;0.00;0.00;;;10.00;63.80;;;;;;5105855;28;20319;-75
2023/04/21 00:48:22;;;;;;;0.10;0.10;;;9.90;63.90;;;;;;5089947;28;20016;-76
2023/04/21 00:50:47;;;;;;;0.30;0.30;;;9.90;63.80;;;;;;5096328;28;20038;-76
2023/04/21 00:53:14;;;;;;;0.00;0.00;;;9.80;64.20;;;;;;5083754;28;20410;-75
2023/04/21 00:55:40;;;;;;;0.70;0.70;;;9.80;64.30;;;;;;5097284;28;20051;-75
2023/04/21 00:58:06;;;;;;;0.10;0.10;;;9.70;64.10;;;;;;5095045;28;20761;-74
2023/04/21 01:00:32;;;;;;;0.10;0.10;;;9.70;64.70;;;;;;5101141;28;20035;-75
2023/04/21 01:03:00;;;;;;;0.30;0.30;;;9.70;64.20;;;;;;5096096;28;20031;-75
2023/04/21 01:05:26;;;;;;;0.20;0.20;;;9.70;64.30;;;;;;5099083;28;20056;-75
2023/04/21 01:07:52;;;;;;;0.10;0.10;;;9.70;64.10;;;;;;5090999;28;20498;-75
2023/04/21 01:10:18;;;;;;;0.30;0.30;;;9.60;64.40;;;;;;5101395;28;20108;-76
2023/04/21 01:12:44;;;;;;;0.20;0.20;;;9.60;64.70;;;;;;5095209;27;20103;-76
2023/04/21 01:15:12;;;;;;;0.05;0.05;;;9.60;64.80;;;;;;5101620;27;20034;-75
2023/04/21 01:17:39;;;;;;;0.22;0.22;;;9.50;65.30;;;;;;5095383;28;20035;-76
2023/04/21 01:20:08;;;;;;;0.08;0.08;;;9.50;65.20;;;;;;5090507;28;20024;-75
2023/04/21 01:22:37;;;;;;;0.55;0.55;;;9.40;65.30;;;;;;5102003;27;20043;-75
2023/04/21 01:25:03;;;;;;;0.20;0.20;;;9.40;65.60;;;;;;5114873;27;20034;-75
2023/04/21 01:27:29;;;;;;;0.10;0.10;;;9.40;65.60;;;;;;5103451;28;20031;-76
2023/04/21 01:29:54;;;;;;;3.05;2.78;;;9.30;66.00;;;;;;5089376;27;20498;-75
2023/04/21 01:32:28;;;;;;;0.10;0.10;;;9.20;66.20;;;;;;5084409;28;20502;-75
2023/04/21 01:34:55;;;;;;;0.45;0.45;;;9.10;67.40;;;;;;5097284;28;20031;-76
2023/04/21 01:37:24;;;;;;;14.43;0.52;;;9.10;66.90;;;;;;5099405;28;20029;-75
2023/04/21 01:39:53;;;;;;;0.30;0.30;;;9.10;66.60;;;;;;5095965;28;20444;-76
2023/04/21 01:42:21;;;;;;;0.10;0.10;;;9.10;66.80;;;;;;5112345;27;20035;-75
2023/04/21 01:44:48;;;;;;;0.30;0.30;;;9.10;67.00;;;;;;5097743;28;20051;-75
2023/04/21 01:47:14;;;;;;;;;;;9.00;67.60;;;;;;5089080;27;20039;-76
2023/04/21 01:49:40;;;;;;;0.10;0.10;;;8.90;67.60;;;;;;5110582;27;19915;-76
2023/04/21 01:52:06;;;;;;;0.10;0.10;;;8.90;67.60;;;;;;5103597;28;20039;-76
2023/04/21 01:54:32;;;;;;;0.22;0.22;;;8.90;67.80;;;;;;5096702;28;20032;-75
2023/04/21 01:56:57;;;;;;;0.30;0.30;;;8.90;67.50;;;;;;5097428;28;20046;-76
2023/04/21 01:59:23;;;;;;;0.60;0.60;;;8.90;67.60;;;;;;5101863;27;20078;-77
2023/04/21 02:01:49;;;;;;;0.52;0.40;;;8.90;67.20;;;;;;5099030;28;20024;-76
2023/04/21 02:04:14;;;;;;;0.20;0.20;;;8.90;67.30;;;;;;5099492;28;20780;-76
2023/04/21 02:06:40;;;;;;;0.00;0.00;;;8.80;67.50;;;;;;5104319;28;20093;-76
2023/04/21 02:09:06;;;;;;;0.03;0.03;;;8.80;67.90;;;;;;5102240;28;20648;-75
2023/04/21 02:11:32;;;;;;;0.30;0.30;;;8.80;67.90;;;;;;5103232;28;20452;-75
2023/04/21 02:13:57;;;;;;;0.20;0.20;;;8.90;67.40;;;;;;5086075;28;20771;-76
2023/04/21 02:16:25;;;;;;;0.10;0.10;;;8.90;67.40;;;;;;5103956;28;20046;-76
2023/04/21 02:18:58;;;;;;;0.10;0.10;;;8.80;67.60;;;;;;5104348;28;20023;-76
2023/04/21 02:21:24;;;;;;;0.15;0.15;;;8.70;68.20;;;;;;5102060;28;20465;-75
2023/04/21 02:23:50;;;;;;;0.20;0.20;;;8.80;68.20;;;;;;5097531;28;20035;-76
2023/04/21 02:26:17;;;;;;;0.68;0.68;;;8.60;68.90;;;;;;5106809;27;20027;-76
2023/04/21 02:28:42;;;;;;;0.00;0.00;;;8.70;68.40;;;;;;5091640;28;20033;-76
2023/04/21 02:31:08;;;;;;;0.10;0.10;;;8.70;68.40;;;;;;5104405;27;20359;-76
2023/04/21 02:33:34;;;;;;;1.13;1.02;;;8.60;69.00;;;;;;5088323;27;20757;-76
2023/04/21 02:36:00;;;;;;;0.03;0.03;;;8.50;69.30;;;;;;5077007;28;20031;-76
2023/04/21 02:38:25;;;;;;;0.10;0.10;;;8.60;69.40;;;;;;5096087;27;20019;-75
2023/04/21 02:40:51;;;;;;;0.25;0.25;;;8.50;69.70;;;;;;5083024;27;20100;-75
2023/04/21 02:43:17;;;;;;;0.10;0.10;;;8.50;69.70;;;;;;5104092;28;20453;-76
2023/04/21 02:45:42;;;;;;;0.10;0.10;;;8.50;69.60;;;;;;5103689;27;20884;-76
2023/04/21 02:48:08;;;;;;;0.38;0.38;;;8.60;69.70;;;;;;5096700;28;20455;-76
2023/04/21 02:50:34;;;;;;;0.15;0.15;;;8.60;70.20;;;;;;5098787;28;20039;-76
2023/04/21 02:53:00;;;;;;;0.27;0.27;;;8.50;70.60;;;;;;5111121;27;20051;-77
2023/04/21 02:55:26;;;;;;;0.28;0.28;;;8.40;70.40;;;;;;5093735;28;20336;-76
2023/04/21 02:57:52;;;;;;;0.30;0.30;;;8.40;70.70;;;;;;5081567;28;20116;-75
2023/04/21 03:00:17;;;;;;;0.10;0.10;;;8.40;70.60;;;;;;5100286;27;20020;-76
2023/04/21 03:02:43;;;;;;;0.10;0.10;;;8.40;70.80;;;;;;5094727;28;20492;-77
2023/04/21 03:05:09;;;;;;;0.10;0.10;;;8.30;70.70;;;;;;5096827;28;20027;-75
2023/04/21 03:07:35;;;;;;;0.10;0.10;;;8.30;71.00;;;;;;5097605;28;20261;-76
2023/04/21 03:10:01;;;;;;;0.20;0.20;;;8.40;70.40;;;;;;5103311;28;20494;-75
2023/04/21 03:12:26;;;;;;;0.32;0.32;;;8.40;70.70;;;;;;5103964;28;20027;-75
2023/04/21 03:14:52;;;;;;;0.20;0.20;;;8.40;70.50;;;;;;5103389;28;20047;-75
2023/04/21 03:17:18;;;;;;;0.10;0.10;;;8.50;70.30;;;;;;5092741;28;20140;-75
2023/04/21 03:19:43;;;;;;;0.30;0.30;;;8.50;70.40;;;;;;5100649;28;20542;-75
2023/04/21 03:22:09;;;;;;;0.20;0.20;;;8.50;70.70;;;;;;5103157;28;20051;-76
2023/04/21 03:24:35;;;;;;;0.10;0.10;;;8.40;71.30;;;;;;5103336;27;20027;-76
2023/04/21 03:27:01;;;;;;;0.10;0.10;;;8.40;70.90;;;;;;5097599;28;20028;-77
2023/04/21 03:29:27;;;;;;;0.10;0.10;;;8.40;70.70;;;;;;5102649;27;20051;-77
2023/04/21 03:31:52;;;;;;;0.40;0.40;;;8.50;71.00;;;;;;5101286;28;20166;-76
2023/04/21 03:34:18;;;;;;;0.10;0.10;;;8.60;70.40;;;;;;5102369;28;20060;-76
2023/04/21 03:36:44;;;;;;;0.38;0.38;;;8.60;70.50;;;;;;5102772;28;20384;-76
2023/04/21 03:39:10;;;;;;;0.17;0.17;;;8.70;70.80;;;;;;5084579;28;20535;-77
2023/04/21 03:41:35;;;;;;;0.10;0.10;;;8.60;70.60;;;;;;5084126;28;20031;-75
2023/04/21 03:44:01;;;;;;;0.15;0.15;;;8.60;71.00;;;;;;5103650;28;20035;-75
2023/04/21 03:46:27;;;;;;;0.10;0.10;;;8.50;70.80;;;;;;5102782;28;20061;-75
2023/04/21 03:48:52;;;;;;;0.17;0.17;;;8.60;71.30;;;;;;5103266;28;20029;-76
2023/04/21 03:51:18;;;;;;;0.10;0.10;;;8.60;70.60;;;;;;5098237;27;20828;-76
2023/04/21 03:53:44;;;;;;;0.57;0.22;;;8.50;70.80;;;;;;5101596;28;20040;-78
2023/04/21 03:56:09;;;;;;;0.10;0.10;;;8.50;71.30;;;;;;5100055;28;20023;-76
2023/04/21 03:58:35;;;;;;;0.17;0.17;;;8.50;70.90;;;;;;5083563;28;20032;-78
2023/04/21 04:01:03;;;;;;;0.17;0.17;;;8.60;70.80;;;;;;5101300;28;20390;-76
2023/04/21 04:03:29;;;;;;;0.10;0.10;;;8.50;71.10;;;;;;5100511;28;20081;-76
2023/04/21 04:05:55;;;;;;;0.52;0.30;;;8.50;71.60;;;;;;5083836;28;20707;-75
2023/04/21 04:08:20;;;;;;;0.20;0.20;;;8.50;71.40;;;;;;5104534;27;20061;-76
2023/04/21 04:10:46;;;;;;;0.10;0.10;;;8.50;71.70;;;;;;5097566;28;20016;-74
2023/04/21 04:13:12;;;;;;;0.40;0.40;;;8.50;71.20;;;;;;5091340;28;20043;-74
2023/04/21 04:15:37;;;;;;;0.00;0.00;;;8.50;72.10;;;;;;5088236;28;20795;-75
2023/04/21 04:18:03;;;;;;;2.75;0.38;;;8.50;71.80;;;;;;5099875;28;20110;-76
2023/04/21 04:20:29;;;;;;;0.05;0.05;;;8.40;71.90;;;;;;5074388;28;20035;-75
2023/04/21 04:22:55;;;;;;;0.10;0.10;;;8.40;72.60;;;;;;5098391;28;20023;-74
2023/04/21 04:25:20;;;;;;;0.15;0.15;;;8.40;72.70;;;;;;5093182;28;20031;-75
2023/04/21 04:27:48;;;;;;;0.35;0.35;;;8.40;72.60;;;;;;5095953;28;20027;-75
2023/04/21 04:30:14;;;;;;;0.08;0.08;;;8.40;73.00;;;;;;5087272;28;20097;-76
2023/04/21 04:32:40;;;;;;;0.10;0.10;;;8.40;72.90;;;;;;5107896;27;20055;-76
2023/04/21 04:35:07;;;;;;;0.10;0.10;;;8.40;73.40;;;;;;5085845;28;20028;-75
2023/04/21 04:37:35;;;;;;;0.13;0.13;;;8.40;73.30;;;;;;5090390;28;20133;-76
2023/04/21 04:40:04;;;;;;;0.30;0.30;;;8.40;73.10;;;;;;5095107;28;20380;-76
2023/04/21 04:42:31;;;;;;;0.15;0.15;;;8.30;73.10;;;;;;5093371;28;20027;-74
2023/04/21 04:44:58;;;;;;;0.08;0.08;;;8.30;73.30;;;;;;5091786;28;20394;-75
2023/04/21 04:47:24;;;;;;;0.05;0.05;;;8.30;73.20;;;;;;5088198;28;20108;-74
2023/04/21 04:49:50;;;;;;;0.10;0.10;;;8.30;73.20;;;;;;5094780;28;20099;-75
2023/04/21 04:52:15;;;;;;;0.82;0.70;;;8.30;73.40;;;;;;5107657;28;20027;-75
2023/04/21 04:54:41;;;;;;;0.10;0.10;;;8.30;73.90;;;;;;5095202;28;20855;-74
2023/04/21 04:57:07;;;;;;;0.10;0.10;;;8.20;74.50;;;;;;5096174;28;20725;-75
2023/04/21 04:59:32;;;;;;;0.32;0.32;;;8.20;74.40;;;;;;5108834;28;20023;-74
2023/04/21 05:01:58;;;;;;;0.20;0.20;;;8.30;74.70;;;;;;5105781;28;20023;-77
2023/04/21 05:04:24;;;;;;;0.40;0.38;;;8.30;74.50;;;;;;5088727;28;20421;-76
2023/04/21 05:06:50;;;;;;;0.30;0.30;;;8.30;74.70;;;;;;5100442;28;20074;-76
2023/04/21 05:09:16;;;;;;;0.20;0.20;;;8.20;75.30;;;;;;5101950;28;20111;-77
2023/04/21 05:11:42;;;;;;;0.28;0.28;;;8.30;74.90;;;;;;5093764;28;20028;-76
2023/04/21 05:14:07;;;;;;;0.20;0.20;;;8.30;75.10;;;;;;5101544;28;20039;-76
2023/04/21 05:16:33;;;;;;;2.75;1.10;;;8.30;75.00;;;;;;5098880;28;20264;-76
2023/04/21 05:19:02;;;;;;;0.95;0.40;;;8.40;75.20;;;;;;5100932;28;20556;-76
2023/04/21 05:21:28;;;;;;;0.20;0.20;;;8.30;75.70;;;;;;5079493;28;20469;-78
2023/04/21 05:23:58;;;;;;;0.17;0.17;;;8.30;76.20;;;;;;5082889;28;20039;-75
2023/04/21 05:26:26;;;;;;;0.20;0.20;;;8.40;75.70;;;;;;5098629;28;20025;-76
2023/04/21 05:28:53;;;;;;;0.10;0.10;;;8.60;75.30;;;;;;5094381;28;20143;-74
2023/04/21 05:31:19;;;;;;;0.40;0.40;;;8.40;76.10;;;;;;5095525;28;20031;-76
2023/04/21 05:33:44;;;;;;;0.90;0.80;;;8.40;76.00;;;;;;5083387;28;20043;-74
2023/04/21 05:36:10;;;;;;;0.13;0.13;;;8.50;75.70;;;;;;5100463;28;20231;-76
2023/04/21 05:38:37;;;;;;;0.70;0.70;;;8.60;75.60;;;;;;5087271;28;20038;-75
2023/04/21 05:41:03;;;;;;;0.32;0.32;;;8.60;75.90;;;;;;5092187;28;20024;-75
2023/04/21 05:43:32;;;;;;;0.10;0.10;;;8.70;75.40;;;;;;5095970;28;20884;-76
2023/04/21 05:45:58;;;;;;;0.63;0.63;;;8.80;75.40;;;;;;5100560;28;20027;-76
2023/04/21 05:48:24;;;;;;;0.05;0.05;;;9.00;75.20;;;;;;5088578;28;20028;-75
2023/04/21 05:50:50;;;;;;;0.10;0.10;;;9.10;75.00;;;;;;5097965;28;20077;-75
2023/04/21 05:53:16;;;;;;;0.88;0.55;;;9.10;75.50;;;;;;5099587;28;20020;-74
2023/04/21 05:55:41;;;;;;;0.68;0.68;;;9.10;75.70;;;;;;5099158;28;20055;-74
2023/04/21 05:58:07;;;;;;;0.10;0.10;;;9.20;75.00;;;;;;5082935;28;20119;-76
2023/04/21 06:00:33;;;;;;;0.10;0.10;;;9.20;75.20;;;;;;5104416;28;20783;-76
2023/04/21 06:02:59;;;;;;;0.50;0.50;;;9.30;75.10;;;;;;5105043;28;20637;-77
2023/04/21 06:05:24;;;;;;;0.20;0.20;;;9.30;74.90;;;;;;5111708;27;20031;-75
2023/04/21 06:07:50;;;;;;;0.10;0.10;;;9.30;75.00;;;;;;5092358;28;20507;-74
2023/04/21 06:10:16;;;;;;;0.13;0.13;;;9.20;75.00;;;;;;5102610;28;20027;-75
2023/04/21 06:12:42;;;;;;;0.28;0.28;;;9.40;74.80;;;;;;5087457;28;20764;-75
2023/04/21 06:15:08;;;;;;;0.20;0.20;;;9.60;74.60;;;;;;5085264;28;20038;-75
2023/04/21 06:17:33;;;;;;;0.20;0.20;;;10.10;73.60;;;;;;5101921;28;20044;-77
2023/04/21 06:19:59;;;;;;;0.05;0.05;;;11.00;71.60;;;;;;5101912;27;20341;-76
2023/04/21 06:22:26;;;;;;;0.10;0.10;;;11.70;69.90;;;;;;5101383;28;20114;-75
2023/04/21 06:24:52;;;;;;;0.10;0.10;;;12.60;67.40;;;;;;5098002;28;20031;-76
2023/04/21 06:27:18;;;;;;;0.20;0.20;;;11.90;68.70;;;;;;5100436;28;20032;-76
2023/04/21 06:29:43;;;;;;;0.20;0.20;;;11.60;69.60;;;;;;5106128;27;20028;-75
2023/04/21 06:32:10;;;;;;;0.38;0.38;;;11.60;70.30;;;;;;5100691;28;20116;-77
2023/04/21 06:34:36;;;;;;;0.57;0.35;;;12.60;68.70;;;;;;5087505;27;20027;-75
2023/04/21 06:37:02;;;;;;;0.15;0.15;;;13.10;67.50;;;;;;5109577;27;20932;-75
2023/04/21 06:39:28;;;;;;;0.20;0.20;;;15.50;62.20;;;;;;5081334;28;20019;-79
2023/04/21 06:41:54;;;;;;;0.33;0.33;;;16.70;59.80;;;;;;5101752;28;20031;-75
2023/04/21 06:44:20;;;;;;;1.45;0.70;;;15.90;60.60;;;;;;5099414;28;20030;-75
2023/04/21 06:46:46;;;;;;;0.07;0.07;;;16.40;59.40;;;;;;5095885;28;20020;-76
2023/04/21 06:49:12;;;;;;;1.02;0.73;;;16.50;58.20;;;;;;5100436;28;20031;-77
2023/04/21 06:51:38;;;;;;;0.00;0.00;;;17.00;58.50;;;;;;5100919;28;20404;-78
2023/04/21 06:54:04;;;;;;;0.20;0.20;;;18.00;56.40;;;;;;5106860;27;20131;-79
2023/04/21 06:56:30;;;;;;;1.45;0.68;;;18.00;57.00;;;;;;5108937;27;20284;-79
2023/04/21 06:58:56;;;;;;;0.17;0.17;;;17.80;56.60;;;;;;5073160;28;20108;-80
2023/04/21 07:01:25;;;;;;;0.03;0.03;;;17.90;56.60;;;;;;5100330;28;20031;-80
2023/04/21 07:03:51;;;;;;;2.40;0.73;;;16.10;60.80;;;;;;5101476;28;20032;-80
2023/04/21 07:06:16;;;;;;;0.63;0.63;;;17.10;58.80;;;;;;5102876;27;20372;-81
2023/04/21 07:08:42;;;;;;;0.17;0.17;;;17.20;58.10;;;;;;5099804;28;20649;-79
2023/04/21 07:11:08;;;;;;;1.10;0.87;;;17.30;59.10;;;;;;5103011;28;20028;-77
2023/04/21 07:13:33;;;;;;;2.43;0.53;;;17.70;58.80;;;;;;5099230;28;20028;-78
2023/04/21 07:15:59;;;;;;;0.10;0.10;;;18.60;56.60;;;;;;5103807;27;20061;-78
2023/04/21 07:18:25;;;;;;;0.47;0.33;;;19.90;53.30;;;;;;5103363;28;20098;-77
2023/04/21 07:20:51;;;;;;;0.20;0.20;;;19.80;52.40;;;;;;5103475;28;20050;-78
2023/04/21 07:23:17;;;;;;;0.40;0.40;;;21.00;52.70;;;;;;5083876;28;20023;-78
2023/04/21 07:25:43;;;;;;;0.95;0.60;;;20.80;52.00;;;;;;5100009;28;20637;-77
2023/04/21 07:28:09;;;;;;;0.00;0.00;;;21.10;52.90;;;;;;5091865;27;20035;-78
2023/04/21 07:30:36;;;;;;;0.00;0.00;;;20.90;53.90;;;;;;5094554;28;20024;-78
2023/04/21 07:33:01;;;;;;;1.75;0.60;;;20.90;55.40;;;;;;5086485;28;20074;-78
2023/04/21 07:35:27;;;;;;;0.20;0.13;;;20.60;55.00;;;;;;5093613;28;20491;-79
2023/04/21 07:37:53;;;;;;;0.63;0.53;;;22.50;53.80;;;;;;5101040;28;20046;-79
2023/04/21 07:40:19;;;;;;;0.10;0.10;;;21.20;56.00;;;;;;5099977;27;20546;-78
2023/04/21 07:42:44;;;;;;;0.10;0.10;;;22.50;54.10;;;;;;5097248;28;20099;-79
2023/04/21 07:45:11;;;;;;;0.37;0.37;;;20.90;58.30;;;;;;5097724;28;20370;-78
2023/04/21 07:47:37;;;;;;;0.17;0.17;;;22.30;57.00;;;;;;5083749;28;20814;-78
2023/04/21 07:50:03;;;;;;;0.20;0.20;;;23.20;55.40;;;;;;5096665;28;20032;-79
2023/04/21 07:52:28;;;;;;;0.00;0.00;;;24.80;52.50;;;;;;5099288;28;20377;-78
2023/04/21 07:54:54;;;;;;;1.50;0.35;;;24.60;51.90;;;;;;5097713;28;20024;-79
2023/04/21 07:57:20;;;;;;;0.50;0.50;;;22.50;55.00;;;;;;5083637;28;20032;-78
2023/04/21 07:59:45;;;;;;;0.00;0.00;;;23.20;55.30;;;;;;5100528;28;20261;-78
2023/04/21 08:02:11;;;;;;;0.28;0.28;;;23.90;53.70;;;;;;5097649;28;20277;-79
2023/04/21 08:04:37;;;;;;;1.75;0.90;;;25.30;51.90;;;;;;5098212;28;20060;-79
2023/04/21 08:07:03;;;;;;;0.13;0.13;;;25.10;52.10;;;;;;5083062;28;20028;-79
2023/04/21 08:09:28;;;;;;;0.17;0.17;;;23.70;54.40;;;;;;5102210;28;20082;-78
2023/04/21 08:11:56;;;;;;;0.00;0.00;;;24.60;52.70;;;;;;5102060;28;20040;-78
2023/04/21 08:14:21;;;;;;;0.17;0.17;;;25.20;51.90;;;;;;5084668;28;20043;-80
2023/04/21 08:16:47;;;;;;;0.20;0.20;;;26.60;51.00;;;;;;5102428;28;20031;-79
2023/04/21 08:19:13;;;;;;;0.00;0.00;;;27.30;50.80;;;;;;5102206;28;20144;-79
2023/04/21 08:21:38;;;;;;;0.55;0.52;;;28.00;49.50;;;;;;5091515;28;20059;-79
2023/04/21 08:24:04;;;;;;;4.60;0.65;;;27.70;49.00;;;;;;5085145;27;20043;-79
2023/04/21 08:26:32;;;;;;;0.05;0.05;;;25.30;50.10;;;;;;5103083;27;20054;-79
2023/04/21 08:28:58;;;;;;;0.10;0.10;;;26.10;50.80;;;;;;5091971;27;20049;-79
2023/04/21 08:31:24;;;;;;;;;;;27.80;48.70;;;;;;5120456;27;20050;-80
2023/04/21 08:33:50;;;;;;;0.43;0.43;;;28.50;48.20;;;;;;5105230;27;19975;-80
2023/04/21 08:36:16;;;;;;;0.32;0.32;;;28.10;46.20;;;;;;5104525;28;20486;-81
2023/04/21 08:38:42;;;;;;;0.35;0.32;;;27.00;47.50;;;;;;5091040;28;20030;-80
2023/04/21 08:41:08;;;;;;;0.47;0.47;;;28.60;47.60;;;;;;5098636;27;20118;-80
2023/04/21 08:43:34;;;;;;;0.00;0.00;;;28.80;46.60;;;;;;5083750;28;20053;-80
2023/04/21 08:46:04;;;;;;;0.57;0.57;;;26.40;48.20;;;;;;5086704;28;20734;-80
2023/04/21 08:48:34;;;;;;;0.40;0.35;;;25.00;50.10;;;;;;5100230;28;20041;-80
2023/04/21 08:51:01;;;;;;;0.15;0.15;;;23.70;52.30;;;;;;5078264;28;20089;-80
2023/04/21 08:53:27;;;;;;;0.00;0.00;;;23.20;52.80;;;;;;5104377;28;20016;-80
2023/04/21 08:55:55;;;;;;;0.00;0.00;;;23.80;54.20;;;;;;5117456;28;20033;-79
2023/04/21 08:58:22;;;;;;;0.05;0.05;;;23.40;53.30;;;;;;5089696;28;20040;-80
2023/04/21 09:00:50;;;;;;;0.00;0.00;;;25.10;51.20;;;;;;5092989;28;20027;-80
2023/04/21 09:03:24;;;;;;;0.40;0.40;;;25.70;49.80;;;;;;5101726;28;20027;-80
2023/04/21 09:06:16;;;;;;;0.20;0.20;;;26.60;50.00;;;;;;5091408;28;20023;-79
2023/04/21 09:08:43;;;;;;;0.10;0.10;;;27.00;48.70;;;;;;5097289;28;20063;-80
2023/04/21 09:11:13;;;;;;;0.22;0.22;;;28.80;47.30;;;;;;5103169;28;20719;-80
2023/04/21 09:13:38;;;;;;;0.30;0.30;;;28.50;48.40;;;;;;5102710;28;20853;-79
2023/04/21 09:16:15;;;;;;;0.00;0.00;;;29.50;46.00;;;;;;5102856;28;20031;-80
2023/04/21 09:18:43;;;;;;;0.10;0.10;;;30.10;48.50;;;;;;5102297;28;20055;-80
2023/04/21 09:21:11;;;;;;;0.13;0.13;;;29.30;46.50;;;;;;5082702;28;20483;-79
2023/04/21 09:23:45;;;;;;;0.20;0.20;;;28.30;47.70;;;;;;5101171;28;20057;-81
2023/04/21 09:26:11;;;;;;;0.10;0.10;;;29.20;45.50;;;;;;5084452;28;20725;-79
2023/04/21 09:28:40;;;;;;;0.60;0.45;;;29.20;44.80;;;;;;5082519;28;20713;-80
2023/04/21 09:31:14;;;;;;;0.38;0.38;;;28.30;45.50;;;;;;5079544;28;20088;-79
2023/04/21 09:33:52;;;;;;;0.00;0.00;;;26.10;48.60;;;;;;5103469;28;20529;-78
2023/04/21 09:36:23;;;;;;;0.00;0.00;;;28.60;45.50;;;;;;5106017;28;20039;-79
2023/04/21 09:39:03;;;;;;;0.08;0.08;;;29.70;43.40;;;;;;5106714;28;20035;-78
2023/04/21 09:41:30;;;;;;;0.10;0.08;;;29.00;45.50;;;;;;5105670;28;20024;-78
2023/04/21 09:44:00;;;;;;;0.38;0.32;;;27.50;47.80;;;;;;5103736;28;20136;-79
2023/04/21 09:46:29;;;;;;;0.85;0.85;;;28.00;48.30;;;;;;5083350;28;20039;-78
2023/04/21 09:48:56;;;;;;;0.00;0.00;;;29.80;44.80;;;;;;5103409;27;20032;-79
2023/04/21 09:51:24;;;;;;;0.10;0.10;;;29.10;43.80;;;;;;5100199;28;20076;-79
2023/04/21 09:53:52;;;;;;;0.52;0.30;;;26.90;49.10;;;;;;5092103;28;20035;-78
2023/04/21 09:56:21;;;;;;;0.10;0.10;;;28.20;46.90;;;;;;5087544;28;20031;-78
2023/04/21 09:58:52;;;;;;;0.35;0.35;;;29.90;45.00;;;;;;5100967;28;20076;-79
2023/04/21 10:01:18;;;;;;;0.98;0.60;;;29.80;45.20;;;;;;5092701;27;20841;-78
2023/04/21 10:03:47;;;;;;;2.05;0.65;;;29.40;44.10;;;;;;5091420;28;20027;-79
2023/04/21 10:06:13;;;;;;;0.10;0.10;;;28.20;45.50;;;;;;5101632;28;20097;-80
2023/04/21 10:08:40;;;;;;;0.45;0.45;;;28.40;45.20;;;;;;5107721;27;20546;-80
2023/04/21 10:11:07;;;;;;;0.20;0.10;;;28.60;46.90;;;;;;5103620;28;20118;-80
2023/04/21 10:13:33;;;;;;;;;;;29.60;46.30;;;;;;5096735;28;20023;-79
2023/04/21 10:16:09;;;;;;;;;;;29.90;43.40;;;;;;5100961;28;19992;-79
2023/04/21 10:18:37;;;;;;;0.82;0.60;;;29.70;44.40;;;;;;5104400;28;19935;-78
2023/04/21 10:21:10;;;;;;;0.13;0.13;;;27.90;45.90;;;;;;5089488;27;20035;-79
2023/04/21 10:23:51;;;;;;;0.38;0.38;;;26.40;47.10;;;;;;5099334;27;20024;-79
2023/04/21 10:26:21;;;;;;;0.30;0.30;;;25.30;51.40;;;;;;5079471;28;20494;-79
2023/04/21 10:28:47;;;;;;;0.20;0.20;;;24.70;50.90;;;;;;5102746;28;20019;-79
2023/04/21 10:31:29;;;;;;;0.40;0.40;;;24.70;51.20;;;;;;5105137;27;20095;-78
2023/04/21 10:34:07;;;;;;;0.08;0.08;;;24.40;52.70;;;;;;5092673;28;20035;-79
2023/04/21 10:36:47;;;;;;;0.50;0.50;;;23.30;55.50;;;;;;5101829;28;20058;-79
2023/04/21 10:39:29;;;;;;;0.20;0.20;;;22.40;53.70;;;;;;5086755;28;20027;-78
2023/04/21 10:41:59;;;;;;;0.57;0.50;;;23.30;52.60;;;;;;5106894;27;20042;-79
2023/04/21 10:44:27;;;;;;;0.00;0.00;;;23.30;52.50;;;;;;5087473;28;20046;-79
2023/04/21 10:46:53;;;;;;;0.70;0.70;;;22.40;51.90;;;;;;5108703;28;20024;-77
2023/04/21 10:49:27;;;;;;;0.10;0.10;;;22.50;56.70;;;;;;5094825;28;20842;-79
2023/04/21 10:52:01;;;;;;;0.00;0.00;;;22.40;56.40;;;;;;5094720;28;20055;-76
2023/04/21 10:54:30;;;;;;;0.45;0.45;;;21.30;55.10;;;;;;5107513;27;20027;-77
2023/04/21 10:56:58;;;;;;;0.52;0.30;;;22.20;55.80;;;;;;5097709;28;20035;-77
2023/04/21 10:59:25;;;;;;;0.05;0.05;;;21.90;54.10;;;;;;5089609;28;20035;-77
2023/04/21 11:01:51;;;;;;;0.10;0.10;;;21.50;51.80;;;;;;5080435;28;20038;-77
2023/04/21 11:04:21;;;;;;;0.20;0.20;;;21.70;52.50;;;;;;5104741;27;20019;-77
2023/04/21 11:07:16;;;;;;;0.30;0.30;;;22.00;57.30;;;;;;5094050;28;20081;-77
2023/04/21 11:09:42;;;;;;;0.57;0.57;;;22.10;54.50;;;;;;5096450;28;20039;-77
2023/04/21 11:12:13;;;;;;;0.20;0.20;;;22.10;55.60;;;;;;5094619;28;20066;-77
2023/04/21 11:14:40;;;;;;;0.20;0.20;;;22.30;56.90;;;;;;5101865;28;20036;-77
2023/04/21 11:17:13;;;;;;;0.13;0.13;;;21.90;58.70;;;;;;5097035;28;20051;-77
2023/04/21 11:19:40;;;;;;;0.77;0.77;;;22.30;56.00;;;;;;5092118;28;20020;-77
2023/04/21 11:22:05;;;;;;;0.13;0.13;;;21.90;55.70;;;;;;5103080;28;20035;-77
2023/04/21 11:24:32;;;;;;;0.10;0.10;;;22.10;57.00;;;;;;5103204;28;20042;-77
2023/04/21 11:27:00;;;;;;;0.13;0.10;;;21.70;56.70;;;;;;5104711;27;20055;-77
2023/04/21 11:29:28;;;;;;;0.45;0.43;;;21.70;58.10;;;;;;5103075;28;20023;-77
2023/04/21 11:31:54;;;;;;;0.70;0.65;;;21.70;56.60;;;;;;5100204;28;20922;-77
2023/04/21 11:34:20;;;;;;;0.08;0.08;;;21.80;56.20;;;;;;5102121;28;20037;-77
2023/04/21 11:36:47;;;;;;;0.10;0.10;;;21.60;56.30;;;;;;5104355;27;20032;-77
2023/04/21 11:39:15;;;;;;;;;;;21.20;59.00;;;;;;5109781;27;20020;-77
2023/04/21 11:41:42;;;;;;;0.10;0.10;;;21.50;59.80;;;;;;5084918;28;20394;-77
2023/04/21 11:44:09;;;;;;;0.10;0.10;;;22.00;58.80;;;;;;5098413;28;20059;-77
2023/04/21 11:46:37;;;;;;;0.38;0.38;;;21.70;56.90;;;;;;5083277;28;20040;-77
2023/04/21 11:49:04;;;;;;;0.03;0.03;;;21.30;55.70;;;;;;5088390;28;20024;-77
2023/04/21 11:51:32;;;;;;;;;;;21.70;58.00;;;;;;5102767;28;20089;-77
2023/04/21 11:53:59;;;;;;;0.13;0.13;;;21.90;56.60;;;;;;5097580;28;20762;-77
2023/04/21 11:56:25;;;;;;;0.10;0.10;;;22.30;57.90;;;;;;5094350;28;20039;-77
2023/04/21 11:58:54;;;;;;;0.47;0.40;;;22.50;57.60;;;;;;5080397;28;20031;-77
2023/04/21 12:01:21;;;;;;;0.68;0.68;;;22.60;55.30;;;;;;5090073;28;20259;-76
2023/04/21 12:03:53;;;;;;;0.40;0.40;;;22.90;55.50;;;;;;5089004;27;20035;-77
2023/04/21 12:06:25;;;;;;;4.43;0.80;;;22.80;57.50;;;;;;5081054;28;20118;-76
2023/04/21 12:08:56;;;;;;;1.38;0.52;;;22.30;55.70;;;;;;5093975;28;20048;-77
2023/04/21 12:11:27;;;;;;;0.17;0.17;;;22.50;54.40;;;;;;5072750;28;20020;-77
2023/04/21 12:13:55;;;;;;;0.00;0.00;;;22.10;57.90;;;;;;5087766;28;20047;-76
2023/04/21 12:16:20;;;;;;;0.68;0.52;;;21.80;55.00;;;;;;5096176;28;20027;-76
2023/04/21 12:18:48;;;;;;;0.33;0.33;;;22.00;59.70;;;;;;5086614;28;20479;-77
2023/04/21 12:21:15;;;;;;;0.60;0.55;;;21.90;55.10;;;;;;5094793;28;20119;-79
2023/04/21 12:23:43;;;;;;;0.52;0.52;;;21.20;55.80;;;;;;5073779;28;20120;-79
2023/04/21 12:26:09;;;;;;;2.40;1.52;;;20.60;55.90;;;;;;5090810;28;20132;-78
2023/04/21 12:28:35;;;;;;;1.27;0.50;;;21.10;56.30;;;;;;5099697;28;20038;-78
2023/04/21 12:31:01;;;;;;;0.00;0.00;;;20.80;56.80;;;;;;5089064;28;20059;-78
2023/04/21 12:33:27;;;;;;;0.50;0.50;;;20.60;57.30;;;;;;5084509;28;20020;-79
2023/04/21 12:35:53;;;;;;;0.22;0.22;;;20.70;57.30;;;;;;5098649;28;20681;-78
2023/04/21 12:38:19;;;;;;;0.63;0.47;;;21.10;56.70;;;;;;5096021;27;20031;-77
2023/04/21 12:40:45;;;;;;;0.30;0.30;;;21.10;60.00;;;;;;5090307;28;20024;-78
2023/04/21 12:43:11;;;;;;;0.00;0.00;;;20.80;58.10;;;;;;5096714;27;20046;-78
2023/04/21 12:45:36;;;;;;;0.20;0.20;;;20.80;56.90;;;;;;5094794;28;20036;-78
2023/04/21 12:48:03;;;;;;;0.77;0.50;;;20.90;60.20;;;;;;5094596;28;20055;-78
2023/04/21 12:50:29;;;;;;;0.35;0.20;;;20.60;59.30;;;;;;5078429;28;20031;-77
2023/04/21 12:52:55;;;;;;;0.10;0.10;;;20.70;57.90;;;;;;5090713;28;20027;-77